Time;durP1;ratioP1;P1;durP2;ratioP2;P2;SDS_P1;SDS_P2;PMS_P1;PMS_P2;Temp;Humidity;BMP_temperature;BMP_pressure;BME280_temperature;BME280_humidity;BME280_pressure;Samples;Min_cycle;Max_cycle;Signal;HPM_P1;HPM_P2
2022/12/07 00:01:34;;;;;;;;;;;;;;;2.75;100.00;96515.53;5092573;28;19964;-78
2022/12/07 00:04:04;;;;;;;;;;;;;;;2.77;100.00;96505.81;5081297;28;19959;-78
2022/12/07 00:06:31;;;;;;;;;;;;;;;2.79;100.00;96516.81;5093202;28;19974;-78
2022/12/07 00:08:57;;;;;;;;;;;;;;;2.80;100.00;96521.00;5093783;28;20307;-78
2022/12/07 00:11:23;;;;;;;;;;;;;;;2.80;100.00;96508.06;5096091;28;19961;-78
2022/12/07 00:13:56;;;;;;;;;;;;;;;2.81;100.00;96512.28;5097474;28;19960;-78
2022/12/07 00:16:25;;;;;;;;;;;;;;;2.81;100.00;96509.69;5095913;28;19959;-75
2022/12/07 00:18:51;;;;;;;;;;;;;;;2.83;100.00;96514.69;5095823;28;19950;-75
2022/12/07 00:21:18;;;;;;;;;;;;;;;2.83;100.00;96509.50;5096019;28;19971;-76
2022/12/07 00:23:45;;;;;;;;;;;;;;;2.83;100.00;96514.69;5097104;28;19950;-76
2022/12/07 00:26:13;;;;;;;;;;;;;;;2.83;100.00;96510.34;5096967;28;19959;-77
2022/12/07 00:28:39;;;;;;;;;;;;;;;2.82;100.00;96511.31;5095864;28;19958;-77
2022/12/07 00:31:09;;;;;;;;;;;;;;;2.83;100.00;96509.50;5096642;28;20321;-77
2022/12/07 00:33:35;;;;;;;;;;;;;;;2.83;100.00;96505.16;5096730;28;19945;-76
2022/12/07 00:36:02;;;;;;;;;;;;;;;2.84;100.00;96503.38;5096841;28;19973;-76
2022/12/07 00:38:29;;;;;;;;;;;;;;;2.83;100.00;96499.97;5096901;28;19956;-77
2022/12/07 00:40:56;;;;;;;;;;;;;;;2.85;100.00;96500.59;5096779;28;19978;-77
2022/12/07 00:43:22;;;;;;;;;;;;;;;2.85;100.00;96498.00;5086808;28;19956;-77
2022/12/07 00:45:48;;;;;;;;;;;;;;;2.84;100.00;96500.78;5095527;28;19948;-76
2022/12/07 00:48:14;;;;;;;;;;;;;;;2.84;100.00;96500.78;5095334;28;20009;-76
2022/12/07 00:50:40;;;;;;;;;;;;;;;2.84;100.00;96498.19;5095481;28;20012;-77
2022/12/07 00:53:05;;;;;;;;;;;;;;;2.84;100.00;96496.41;5085271;28;19944;-77
2022/12/07 00:55:35;;;;;;;;;;;;;;;2.85;100.00;96497.19;5096574;28;20010;-77
2022/12/07 00:58:01;;;;;;;;;;;;;;;2.84;100.00;96493.81;5095439;28;20436;-77
2022/12/07 01:00:27;;;;;;;;;;;;;;;2.84;100.00;96491.22;5095309;28;19969;-77
2022/12/07 01:02:52;;;;;;;;;;;;;;;2.84;100.00;96493.00;5096506;28;19951;-77
2022/12/07 01:05:18;;;;;;;;;;;;;;;2.84;100.00;96500.78;5096819;28;20045;-77
2022/12/07 01:07:46;;;;;;;;;;;;;;;2.84;100.00;96495.59;5096772;28;20419;-77
2022/12/07 01:10:12;;;;;;;;;;;;;;;2.83;100.00;96499.97;5096312;28;19958;-75
2022/12/07 01:12:38;;;;;;;;;;;;;;;2.82;100.00;96498.34;5096325;28;19952;-75
2022/12/07 01:15:04;;;;;;;;;;;;;;;2.82;100.00;96493.16;5095200;28;19960;-75
2022/12/07 01:17:30;;;;;;;;;;;;;;;2.83;100.00;96507.75;5096274;28;19960;-76
2022/12/07 01:19:56;;;;;;;;;;;;;;;2.83;100.00;96499.97;5096045;28;19971;-77
2022/12/07 01:22:22;;;;;;;;;;;;;;;2.83;100.00;96502.56;5094232;28;19995;-76
2022/12/07 01:24:48;;;;;;;;;;;;;;;2.84;100.00;96504.16;5094860;28;20419;-77
2022/12/07 01:27:14;;;;;;;;;;;;;;;2.83;100.00;96499.97;5096097;28;19951;-77
2022/12/07 01:29:39;;;;;;;;;;;;;;;2.84;100.00;96508.56;5095738;28;19954;-78
2022/12/07 01:32:05;;;;;;;;;;;;;;;2.84;100.00;96504.16;5096151;28;20281;-78
2022/12/07 01:34:31;;;;;;;;;;;;;;;2.83;100.00;96507.75;5095783;28;19949;-77
2022/12/07 01:36:57;;;;;;;;;;;;;;;2.84;100.00;96511.94;5095689;28;20460;-78
2022/12/07 01:39:23;;;;;;;;;;;;;;;2.83;100.00;96512.94;5095783;28;20208;-79
2022/12/07 01:41:49;;;;;;;;;;;;;;;2.84;100.00;96516.31;5095603;28;20408;-78
2022/12/07 01:44:31;;;;;;;;;;;;;;;2.84;100.00;96516.31;5094222;28;19984;-79
2022/12/07 01:46:59;;;;;;;;;;;;;;;2.84;100.00;96518.91;5094329;28;19971;-78
2022/12/07 01:49:27;;;;;;;;;;;;;;;2.83;100.00;96515.53;5095505;28;20408;-79
2022/12/07 01:51:57;;;;;;;;;;;;;;;2.82;100.00;96518.28;5094569;28;19951;-78
2022/12/07 01:54:23;;;;;;;;;;;;;;;2.83;100.00;96514.69;5094294;28;19945;-76
2022/12/07 01:56:51;;;;;;;;;;;;;;;2.82;100.00;96515.69;5095196;28;20048;-77
2022/12/07 01:59:18;;;;;;;;;;;;;;;2.81;100.00;96514.06;5093929;28;19948;-76
2022/12/07 02:01:44;;;;;;;;;;;;;;;2.80;100.00;96517.63;5095043;28;19968;-76
2022/12/07 02:04:10;;;;;;;;;;;;;;;2.75;100.00;96517.31;5095576;28;19962;-76
2022/12/07 02:06:37;;;;;;;;;;;;;;;2.69;100.00;96518.78;5094042;28;19960;-76
2022/12/07 02:09:03;;;;;;;;;;;;;;;2.63;100.00;96516.88;5094041;28;19952;-76
2022/12/07 02:11:28;;;;;;;;;;;;;;;2.56;100.00;96519.31;5095079;28;19976;-76
2022/12/07 02:13:54;;;;;;;;;;;;;;;2.50;100.00;96519.97;5093505;28;19988;-76
2022/12/07 02:16:39;;;;;;;;;;;;;;;2.46;100.00;96518.69;5094736;28;19956;-76
2022/12/07 02:19:20;;;;;;;;;;;;;;;2.39;100.00;96517.72;5081930;28;20311;-76
2022/12/07 02:21:51;;;;;;;;;;;;;;;2.35;100.00;96519.00;5093433;28;19963;-78
2022/12/07 02:24:17;;;;;;;;;;;;;;;2.33;100.00;96520.97;5115111;27;19949;-78
2022/12/07 02:26:58;;;;;;;;;;;;;;;2.30;100.00;96523.88;5094716;28;19949;-78
2022/12/07 02:29:27;;;;;;;;;;;;;;;2.29;100.00;96511.91;5094769;28;19955;-78
2022/12/07 02:32:03;;;;;;;;;;;;;;;2.28;100.00;96508.50;5094742;28;19949;-78
2022/12/07 02:34:32;;;;;;;;;;;;;;;2.27;100.00;96509.50;5093756;28;19944;-78
2022/12/07 02:37:01;;;;;;;;;;;;;;;2.29;100.00;96510.16;5093307;28;19970;-77
2022/12/07 02:39:40;;;;;;;;;;;;;;;2.31;100.00;96517.72;5094410;28;20396;-78
2022/12/07 02:42:13;;;;;;;;;;;;;;;2.31;100.00;96510.78;5094437;28;20332;-78
2022/12/07 02:44:39;;;;;;;;;;;;;;;2.31;100.00;96513.38;5093143;28;19963;-78
2022/12/07 02:47:07;;;;;;;;;;;;;;;2.31;100.00;96512.56;5094553;28;19973;-78
2022/12/07 02:49:34;;;;;;;;;;;;;;;2.30;100.00;96511.75;5094460;28;19944;-78
2022/12/07 02:52:00;;;;;;;;;;;;;;;2.29;100.00;96504.13;5094531;28;19949;-80
2022/12/07 02:54:25;;;;;;;;;;;;;;;2.28;100.00;96511.09;5093105;28;19992;-78
2022/12/07 02:57:07;;;;;;;;;;;;;;;2.29;100.00;96504.13;5076323;28;20003;-79
2022/12/07 02:59:39;;;;;;;;;;;;;;;2.29;100.00;96507.56;5078840;28;19962;-78
2022/12/07 03:02:13;;;;;;;;;;;;;;;2.29;100.00;96498.97;5094132;28;19957;-78
2022/12/07 03:04:55;;;;;;;;;;;;;;;2.29;100.00;96498.97;5080788;28;19949;-78
2022/12/07 03:07:27;;;;;;;;;;;;;;;2.29;100.00;96501.56;5092937;28;19954;-78
2022/12/07 03:10:00;;;;;;;;;;;;;;;2.28;100.00;96494.78;5093053;28;20336;-78
2022/12/07 03:12:33;;;;;;;;;;;;;;;2.28;100.00;96502.53;5092827;28;19940;-78
2022/12/07 03:15:03;;;;;;;;;;;;;;;2.27;100.00;96493.97;5094220;28;19952;-79
2022/12/07 03:17:31;;;;;;;;;;;;;;;2.26;100.00;96482.00;5092167;28;19951;-77
2022/12/07 03:19:58;;;;;;;;;;;;;;;2.27;100.00;96487.97;5092559;28;19952;-78
2022/12/07 03:22:25;;;;;;;;;;;;;;;2.27;100.00;96480.22;5092735;28;19956;-78
2022/12/07 03:24:53;;;;;;;;;;;;;;;2.26;100.00;96484.59;5094057;28;20313;-76
2022/12/07 03:27:21;;;;;;;;;;;;;;;2.27;100.00;96488.81;5093961;28;19945;-78
2022/12/07 03:33:20;;;;;;;;;;;;;;;2.24;100.00;96476.97;5061087;28;20320;-78
2022/12/07 03:35:56;;;;;;;;;;;;;;;2.24;100.00;96484.75;5093817;28;19956;-75
2022/12/07 03:38:30;;;;;;;;;;;;;;;2.23;100.00;96485.72;5094030;28;19953;-78
2022/12/07 03:41:11;;;;;;;;;;;;;;;2.21;100.00;96492.84;5092604;28;19986;-78
2022/12/07 03:43:37;;;;;;;;;;;;;;;2.21;100.00;96484.28;5093899;28;20429;-77
2022/12/07 03:46:13;;;;;;;;;;;;;;;2.18;100.00;96487.19;5096258;28;19949;-76
2022/12/07 03:49:00;;;;;;;;;;;;;;;2.13;100.00;96484.28;5097967;28;19955;-76
2022/12/07 03:51:32;;;;;;;;;;;;;;;2.11;100.00;96488.81;5097717;28;19945;-76
2022/12/07 03:54:11;;;;;;;;;;;;;;;2.08;100.00;96494.31;5098249;28;20313;-77
2022/12/07 03:56:37;;;;;;;;;;;;;;;2.01;100.00;96489.78;5097877;28;19954;-76
2022/12/07 03:59:03;;;;;;;;;;;;;;;1.99;100.00;96489.13;5097689;28;20317;-76
2022/12/07 04:01:29;;;;;;;;;;;;;;;1.99;100.00;96491.72;5096425;28;19963;-76
2022/12/07 04:03:55;;;;;;;;;;;;;;;1.96;100.00;96489.47;5096458;28;20000;-76
2022/12/07 04:06:21;;;;;;;;;;;;;;;1.97;100.00;96488.47;5079493;28;19956;-76
2022/12/07 04:08:47;;;;;;;;;;;;;;;1.98;100.00;96489.31;5096536;28;20407;-76
2022/12/07 04:11:13;;;;;;;;;;;;;;;1.97;100.00;96480.72;5096522;28;19960;-77
2022/12/07 04:16:23;;;;;;;;;;;;;;;1.92;100.00;96483.00;5097565;28;20458;-76
2022/12/07 04:18:49;;;;;;;;;;;;;;;1.92;100.00;96483.00;5095786;28;19946;-77
2022/12/07 04:21:15;;;;;;;;;;;;;;;1.92;100.00;96488.19;5095917;28;19997;-77
2022/12/07 04:23:41;;;;;;;;;;;;;;;1.88;100.00;96475.75;5097125;28;19946;-77
2022/12/07 04:26:06;;;;;;;;;;;;;;;1.81;100.00;96476.38;5097366;28;20414;-76
2022/12/07 04:28:32;;;;;;;;;;;;;;;1.81;100.00;96473.00;5095824;28;19999;-76
2022/12/07 04:30:58;;;;;;;;;;;;;;;1.83;100.00;96473.66;5097021;28;19983;-76
2022/12/07 04:33:24;;;;;;;;;;;;;;;1.83;100.00;96474.44;5097245;28;19990;-75
2022/12/07 04:35:50;;;;;;;;;;;;;;;1.82;100.00;96475.41;5096712;28;20003;-77
2022/12/07 04:38:16;;;;;;;;;;;;;;;1.83;100.00;96474.44;5079041;28;19955;-77
2022/12/07 04:40:42;;;;;;;;;;;;;;;1.85;100.00;96476.88;5096911;28;20290;-77
2022/12/07 04:43:07;;;;;;;;;;;;;;;1.85;100.00;96479.47;5096666;28;19957;-77
2022/12/07 04:45:33;;;;;;;;;;;;;;;1.87;100.00;96476.69;5078810;28;19974;-78
2022/12/07 04:47:59;;;;;;;;;;;;;;;1.87;100.00;96467.19;5096797;28;20390;-77
2022/12/07 04:50:25;;;;;;;;;;;;;;;1.89;100.00;96464.41;5096666;28;19998;-77
2022/12/07 04:52:51;;;;;;;;;;;;;;;1.88;100.00;96466.19;5095638;28;19951;-76
2022/12/07 04:55:17;;;;;;;;;;;;;;;1.89;100.00;96457.50;5096385;28;19993;-77
2022/12/07 04:57:43;;;;;;;;;;;;;;;1.89;100.00;96462.66;5094706;28;20365;-76
2022/12/07 05:00:09;;;;;;;;;;;;;;;1.88;100.00;96461.03;5094988;28;19992;-77
2022/12/07 05:02:34;;;;;;;;;;;;;;;1.86;100.00;96467.34;5095224;28;19973;-76
2022/12/07 05:05:00;;;;;;;;;;;;;;;1.84;100.00;96470.06;5096558;28;19948;-77
2022/12/07 05:07:26;;;;;;;;;;;;;;;1.83;100.00;96471.06;5096360;28;20005;-76
2022/12/07 05:09:52;;;;;;;;;;;;;;;1.79;100.00;96465.41;5096373;28;19950;-78
2022/12/07 05:12:18;;;;;;;;;;;;;;;1.76;100.00;96460.53;5061532;28;20009;-77
2022/12/07 05:14:44;;;;;;;;;;;;;;;1.74;100.00;96454.75;5096311;28;19955;-76
2022/12/07 05:17:11;;;;;;;;;;;;;;;1.69;100.00;96451.81;5096154;28;19955;-77
2022/12/07 05:19:37;;;;;;;;;;;;;;;1.67;100.00;96458.94;5096284;28;19966;-76
2022/12/07 05:22:03;;;;;;;;;;;;;;;1.62;100.00;96450.88;5096085;28;20038;-76
2022/12/07 05:24:28;;;;;;;;;;;;;;;1.58;100.00;96455.53;5094973;28;19951;-76
2022/12/07 05:26:54;;;;;;;;;;;;;;;1.55;100.00;96455.03;5096082;28;19947;-76
2022/12/07 05:29:20;;;;;;;;;;;;;;;1.51;100.00;96451.16;5094989;28;19956;-77
2022/12/07 05:31:46;;;;;;;;;;;;;;;1.48;100.00;96448.91;5096315;28;19955;-77
2022/12/07 05:34:12;;;;;;;;;;;;;;;1.43;100.00;96444.22;5095816;28;20006;-75
2022/12/07 05:36:38;;;;;;;;;;;;;;;1.40;100.00;96445.34;5096344;28;19976;-78
2022/12/07 05:39:04;;;;;;;;;;;;;;;1.38;100.00;96451.66;5095890;28;19953;-77
2022/12/07 05:44:14;;;;;;;;;;;;;;;1.32;100.00;96462.63;5094658;28;19952;-76
2022/12/07 05:46:40;;;;;;;;;;;;;;;1.29;100.00;96458.56;5095588;28;19955;-77
2022/12/07 05:49:06;;;;;;;;;;;;;;;1.29;100.00;96457.78;5095742;28;20460;-76
2022/12/07 05:51:32;;;;;;;;;;;;;;;1.26;100.00;96466.66;5094754;28;19993;-77
2022/12/07 05:53:58;;;;;;;;;;;;;;;1.26;100.00;96461.50;5095278;28;20044;-77
2022/12/07 05:56:24;;;;;;;;;;;;;;;1.26;100.00;96458.91;5095136;28;19991;-77
2022/12/07 06:01:34;;;;;;;;;;;;;;;1.28;100.00;96462.16;5095542;28;19962;-76
2022/12/07 06:04:00;;;;;;;;;;;;;;;1.29;100.00;96463.75;5094048;28;19956;-75
2022/12/07 06:06:26;;;;;;;;;;;;;;;1.29;100.00;96466.31;5093950;28;20325;-76
2022/12/07 06:08:52;;;;;;;;;;;;;;;1.31;100.00;96461.81;5093809;28;19978;-76
2022/12/07 06:14:02;;;;;;;;;;;;;;;1.32;100.00;96467.78;5079710;28;19942;-77
2022/12/07 06:16:28;;;;;;;;;;;;;;;1.32;100.00;96471.16;5095088;28;20035;-77
2022/12/07 06:18:54;;;;;;;;;;;;;;;1.33;100.00;96469.41;5094794;28;20403;-77
2022/12/07 06:21:20;;;;;;;;;;;;;;;1.34;100.00;96481.34;5093863;28;19968;-77
2022/12/07 06:23:47;;;;;;;;;;;;;;;1.34;100.00;96465.84;5093908;28;19999;-77
2022/12/07 06:26:13;;;;;;;;;;;;;;;1.34;100.00;96482.16;5076796;28;19949;-77
2022/12/07 06:28:40;;;;;;;;;;;;;;;1.36;100.00;96482.81;5093611;28;19949;-77
2022/12/07 06:31:07;;;;;;;;;;;;;;;1.35;100.00;96476.03;5094792;28;19956;-76
2022/12/07 06:33:33;;;;;;;;;;;;;;;1.39;100.00;96487.66;5095137;28;19971;-77
2022/12/07 06:35:58;;;;;;;;;;;;;;;1.38;100.00;96480.06;5094384;28;20505;-74
2022/12/07 06:38:24;;;;;;;;;;;;;;;1.36;100.00;96475.03;5095025;28;20044;-76
2022/12/07 06:40:50;;;;;;;;;;;;;;;1.36;100.00;96482.81;5094676;28;19952;-76
2022/12/07 06:43:16;;;;;;;;;;;;;;;1.34;100.00;96482.16;5093401;28;19973;-76
2022/12/07 06:45:42;;;;;;;;;;;;;;;1.35;100.00;96482.97;5093427;28;19956;-77
2022/12/07 06:48:08;;;;;;;;;;;;;;;1.36;100.00;96487.97;5094377;28;19950;-78
2022/12/07 06:50:34;;;;;;;;;;;;;;;1.36;100.00;96489.75;5094481;28;20026;-77
2022/12/07 06:53:00;;;;;;;;;;;;;;;1.37;100.00;96491.38;5094725;28;19953;-77
2022/12/07 06:55:26;;;;;;;;;;;;;;;1.36;100.00;96497.50;5094170;28;19981;-78
2022/12/07 06:57:52;;;;;;;;;;;;;;;1.37;100.00;96494.75;5094496;28;19956;-77
2022/12/07 07:00:18;;;;;;;;;;;;;;;1.38;100.00;96503.31;5094205;28;20386;-77
2022/12/07 07:02:43;;;;;;;;;;;;;;;1.38;100.00;96493.78;5094000;28;19968;-77
2022/12/07 07:05:09;;;;;;;;;;;;;;;1.37;100.00;96497.34;5093079;28;19955;-78
2022/12/07 07:07:35;;;;;;;;;;;;;;;1.38;100.00;96500.75;5094112;28;19967;-77
2022/12/07 07:10:01;;;;;;;;;;;;;;;1.38;100.00;96493.78;5094599;28;20459;-77
2022/12/07 07:12:27;;;;;;;;;;;;;;;1.38;100.00;96498.94;5094031;28;19958;-77
2022/12/07 07:14:53;;;;;;;;;;;;;;;1.38;100.00;96492.97;5093452;28;19952;-77
2022/12/07 07:17:19;;;;;;;;;;;;;;;1.37;100.00;96492.19;5094062;28;19961;-76
2022/12/07 07:19:45;;;;;;;;;;;;;;;1.38;100.00;96488.63;5093739;28;20467;-76
2022/12/07 07:22:10;;;;;;;;;;;;;;;1.40;100.00;96488.47;5092874;28;19965;-77
2022/12/07 07:24:36;;;;;;;;;;;;;;;1.42;100.00;96495.09;5093737;28;20019;-76
2022/12/07 07:27:02;;;;;;;;;;;;;;;1.43;100.00;96495.91;5094119;28;20084;-76
2022/12/07 07:29:28;;;;;;;;;;;;;;;1.44;100.00;96488.97;5091984;28;19996;-76
2022/12/07 07:31:54;;;;;;;;;;;;;;;1.44;100.00;96484.59;5093888;28;19953;-76
2022/12/07 07:34:20;;;;;;;;;;;;;;;1.47;100.00;96501.56;5093727;28;20398;-76
2022/12/07 07:36:46;;;;;;;;;;;;;;;1.49;100.00;96494.44;5093911;28;20344;-76
2022/12/07 07:39:12;;;;;;;;;;;;;;;1.50;100.00;96496.88;5093922;28;20009;-76
2022/12/07 07:41:38;;;;;;;;;;;;;;;1.52;100.00;96497.53;5093727;28;19973;-76
2022/12/07 07:44:04;;;;;;;;;;;;;;;1.53;100.00;96501.72;5092378;28;20406;-77
2022/12/07 07:46:31;;;;;;;;;;;;;;;1.55;100.00;96507.53;5092611;28;19954;-78
2022/12/07 07:48:56;;;;;;;;;;;;;;;1.57;100.00;96508.19;5093626;28;19949;-76
2022/12/07 07:51:22;;;;;;;;;;;;;;;1.58;100.00;96509.81;5093688;28;20351;-76
2022/12/07 07:53:48;;;;;;;;;;;;;;;1.61;100.00;96511.28;5093450;28;20346;-76
2022/12/07 07:56:14;;;;;;;;;;;;;;;1.63;100.00;96509.34;5093453;28;19976;-77
2022/12/07 07:58:40;;;;;;;;;;;;;;;1.63;100.00;96509.34;5092633;28;20408;-77
2022/12/07 08:01:06;;;;;;;;;;;;;;;1.58;100.00;96509.03;5084732;28;20314;-76
2022/12/07 08:03:32;;;;;;;;;;;;;;;1.57;100.00;96515.94;5093232;28;20458;-77
2022/12/07 08:05:58;;;;;;;;;;;;;;;1.56;100.00;96513.53;5093741;28;19975;-75
2022/12/07 08:08:24;;;;;;;;;;;;;;;1.75;100.00;96504.66;5092123;28;20005;-76
2022/12/07 08:10:50;;;;;;;;;;;;;;;1.84;100.00;96503.69;5093225;28;20004;-76
2022/12/07 08:13:16;;;;;;;;;;;;;;;1.87;100.00;96502.56;5093337;28;19952;-77
2022/12/07 08:15:43;;;;;;;;;;;;;;;2.00;100.00;96503.69;5093586;28;20321;-76
2022/12/07 08:18:09;;;;;;;;;;;;;;;2.24;100.00;96509.81;5093294;28;19945;-76
2022/12/07 08:20:35;;;;;;;;;;;;;;;2.41;100.00;96506.22;5091994;28;19955;-76
2022/12/07 08:23:01;;;;;;;;;;;;;;;2.53;100.00;96508.47;5091823;28;19973;-76
2022/12/07 08:25:27;;;;;;;;;;;;;;;2.61;100.00;96513.63;5093401;28;19951;-76
2022/12/07 08:27:54;;;;;;;;;;;;;;;2.74;100.00;96513.91;5093299;28;19963;-78
2022/12/07 08:30:20;;;;;;;;;;;;;;;2.89;100.00;96524.38;5092233;28;19951;-77
2022/12/07 08:32:46;;;;;;;;;;;;;;;3.01;100.00;96525.63;5094990;28;19948;-76
2022/12/07 08:35:12;;;;;;;;;;;;;;;3.15;100.00;96518.13;5096729;28;19947;-77
2022/12/07 08:37:38;;;;;;;;;;;;;;;3.25;100.00;96522.16;5095530;28;19978;-76
2022/12/07 08:40:05;;;;;;;;;;;;;;;3.35;100.00;96518.53;5097028;28;19948;-75
2022/12/07 08:42:37;;;;;;;;;;;;;;;3.30;100.00;96511.25;5095963;28;19968;-75
2022/12/07 08:45:05;;;;;;;;;;;;;;;3.37;100.00;96517.38;5096913;28;20317;-75
2022/12/07 08:47:31;;;;;;;;;;;;;;;3.48;100.00;96517.97;5095356;28;19949;-75
2022/12/07 08:50:03;;;;;;;;;;;;;;;3.38;100.00;96508.63;5096055;28;19952;-75
2022/12/07 08:52:32;;;;;;;;;;;;;;;3.08;99.00;96514.59;5095933;28;19947;-75
2022/12/07 08:54:59;;;;;;;;;;;;;;;2.63;98.53;96516.88;5096622;28;19942;-75
2022/12/07 08:57:27;;;;;;;;;;;;;;;2.26;99.04;96512.25;5096410;28;19953;-76
2022/12/07 08:59:53;;;;;;;;;;;;;;;2.01;100.00;96518.22;5096434;28;19959;-75
2022/12/07 09:02:19;;;;;;;;;;;;;;;1.91;100.00;96512.44;5096453;28;20068;-75
2022/12/07 09:04:45;;;;;;;;;;;;;;;1.81;100.00;96515.19;5095540;28;19955;-75
2022/12/07 09:07:11;;;;;;;;;;;;;;;1.76;100.00;96514.81;5096349;28;19993;-75
2022/12/07 09:09:37;;;;;;;;;;;;;;;1.77;100.00;96516.47;5096476;28;19961;-76
2022/12/07 09:12:03;;;;;;;;;;;;;;;1.80;100.00;96510.16;5094910;28;19950;-75
2022/12/07 09:14:28;;;;;;;;;;;;;;;1.78;100.00;96512.91;5095302;28;20427;-75
2022/12/07 09:16:54;;;;;;;;;;;;;;;1.76;100.00;96514.03;5096256;28;19943;-75
2022/12/07 09:19:20;;;;;;;;;;;;;;;1.75;100.00;96515.00;5095431;28;19975;-74
2022/12/07 09:21:46;;;;;;;;;;;;;;;2.12;100.00;96511.94;5094643;28;19959;-75
2022/12/07 09:24:12;;;;;;;;;;;;;;;2.66;100.00;96519.13;5096210;28;20404;-76
2022/12/07 09:26:40;;;;;;;;;;;;;;;2.69;100.00;96523.97;5096642;28;20326;-76
2022/12/07 09:29:06;;;;;;;;;;;;;;;2.71;100.00;96523.78;5095835;28;19963;-75
2022/12/07 09:31:32;;;;;;;;;;;;;;;2.62;100.00;96525.59;5096440;28;19955;-76
2022/12/07 09:33:58;;;;;;;;;;;;;;;2.44;99.92;96531.78;5094511;28;20388;-75
2022/12/07 09:36:25;;;;;;;;;;;;;;;2.35;100.00;96527.59;5094633;28;19971;-75
2022/12/07 09:38:51;;;;;;;;;;;;;;;2.30;100.00;96519.50;5094525;28;19950;-75
2022/12/07 09:41:17;;;;;;;;;;;;;;;2.22;100.00;96512.56;5094528;28;20045;-75
2022/12/07 09:43:43;;;;;;;;;;;;;;;2.18;100.00;96518.22;5093846;28;20431;-75
2022/12/07 09:46:12;;;;;;;;;;;;;;;2.21;100.00;96517.91;5094445;28;19950;-75
2022/12/07 09:48:39;;;;;;;;;;;;;;;2.23;100.00;96503.03;5094251;28;19947;-76
2022/12/07 09:51:16;;;;;;;;;;;;;;;2.20;100.00;96503.34;5077690;28;19962;-76
2022/12/07 09:53:42;;;;;;;;;;;;;;;2.17;99.77;96501.91;5095674;28;19942;-76
2022/12/07 09:56:11;;;;;;;;;;;;;;;2.16;100.00;96505.47;5095911;28;19971;-75
2022/12/07 09:58:37;;;;;;;;;;;;;;;2.22;100.00;96502.22;5094175;28;19962;-76
2022/12/07 10:01:19;;;;;;;;;;;;;;;2.29;100.00;96496.38;5095268;28;19959;-75
2022/12/07 10:03:58;;;;;;;;;;;;;;;2.28;99.58;96490.41;5095188;28;19961;-75
2022/12/07 10:06:24;;;;;;;;;;;;;;;2.30;100.00;96503.19;5093980;28;19954;-75
2022/12/07 10:08:50;;;;;;;;;;;;;;;2.38;100.00;96501.38;5095247;28;20460;-75
2022/12/07 10:11:16;;;;;;;;;;;;;;;2.51;100.00;96490.50;5077317;28;19967;-76
2022/12/07 10:13:48;;;;;;;;;;;;;;;2.54;100.00;96492.78;5093913;28;20004;-75
2022/12/07 10:16:23;;;;;;;;;;;;;;;2.48;100.00;96488.28;5094144;28;19949;-75
2022/12/07 10:18:49;;;;;;;;;;;;;;;2.49;100.00;96489.06;5094909;28;19957;-75
2022/12/07 10:21:20;;;;;;;;;;;;;;;2.54;100.00;96492.78;5093715;28;20335;-76
2022/12/07 10:24:01;;;;;;;;;;;;;;;2.61;100.00;96487.75;5094935;28;19958;-75
2022/12/07 10:26:29;;;;;;;;;;;;;;;2.71;100.00;96484.94;5093903;28;19954;-75
2022/12/07 10:28:58;;;;;;;;;;;;;;;2.77;99.17;96469.56;5093366;28;19945;-75
2022/12/07 10:31:24;;;;;;;;;;;;;;;2.81;98.85;96481.22;5093448;28;19964;-75
2022/12/07 10:33:50;;;;;;;;;;;;;;;2.80;96.43;96465.84;5076604;28;20442;-75
2022/12/07 10:36:21;;;;;;;;;;;;;;;2.77;97.28;96474.75;5094778;28;19975;-75
2022/12/07 10:38:48;;;;;;;;;;;;;;;2.75;97.84;96473.28;5067579;28;20315;-75
2022/12/07 10:41:14;;;;;;;;;;;;;;;2.80;98.80;96481.38;5076633;28;19964;-75
2022/12/07 10:43:54;;;;;;;;;;;;;;;2.79;95.68;96465.03;5093546;28;19964;-76
2022/12/07 10:46:29;;;;;;;;;;;;;;;2.78;96.20;96467.78;5093223;28;19949;-76
2022/12/07 10:48:55;;;;;;;;;;;;;;;2.73;95.98;96462.28;5093635;28;19947;-75
2022/12/07 10:51:32;;;;;;;;;;;;;;;2.75;96.24;96466.34;5076271;28;20359;-75
2022/12/07 10:54:16;;;;;;;;;;;;;;;2.75;95.98;96460.34;5092704;28;20359;-77
2022/12/07 10:56:57;;;;;;;;;;;;;;;2.77;97.48;96455.78;5094372;28;19957;-76
2022/12/07 10:59:42;;;;;;;;;;;;;;;2.79;96.53;96451.25;5094338;28;19956;-75
2022/12/07 11:02:16;;;;;;;;;;;;;;;2.83;97.83;96462.91;5092918;28;19948;-75
2022/12/07 11:04:48;;;;;;;;;;;;;;;2.92;97.71;96461.91;5094313;28;19951;-75
2022/12/07 11:07:38;;;;;;;;;;;;;;;3.01;98.42;96454.88;5092826;28;19963;-76
2022/12/07 11:10:29;;;;;;;;;;;;;;;3.09;97.83;96452.25;5094151;28;19952;-75
2022/12/07 11:13:24;;;;;;;;;;;;;;;3.07;95.85;96445.59;5092751;28;19952;-75
2022/12/07 11:15:53;;;;;;;;;;;;;;;3.08;95.63;96442.06;5079566;28;19946;-75
2022/12/07 11:18:19;;;;;;;;;;;;;;;3.07;94.95;96436.06;5092678;28;19957;-76
2022/12/07 11:20:55;;;;;;;;;;;;;;;3.05;94.84;96427.66;5092982;28;19983;-75
2022/12/07 11:23:39;;;;;;;;;;;;;;;3.06;95.67;96431.84;5092644;28;19971;-75
2022/12/07 11:26:11;;;;;;;;;;;;;;;3.20;100.00;96431.13;5092574;28;20325;-77
2022/12/07 11:28:49;;;;;;;;;;;;;;;3.97;100.00;96422.44;5092403;28;19950;-77
2022/12/07 11:31:24;;;;;;;;;;;;;;;4.39;100.00;96422.81;5092750;28;19957;-75
2022/12/07 11:34:00;;;;;;;;;;;;;;;4.47;94.15;96412.31;5092564;28;19949;-75
2022/12/07 11:36:33;;;;;;;;;;;;;;;4.20;91.32;96406.81;5093979;28;19968;-75
2022/12/07 11:39:04;;;;;;;;;;;;;;;3.99;92.91;96402.31;5093821;28;20310;-75
2022/12/07 11:41:35;;;;;;;;;;;;;;;3.87;93.85;96398.53;5093947;28;19956;-75
2022/12/07 11:44:05;;;;;;;;;;;;;;;3.71;93.68;96404.66;5093747;28;19966;-75
2022/12/07 11:46:45;;;;;;;;;;;;;;;3.67;95.45;96403.41;5093537;28;20045;-75
2022/12/07 11:49:31;;;;;;;;;;;;;;;3.62;93.09;96392.75;5076031;28;19950;-76
2022/12/07 11:51:59;;;;;;;;;;;;;;;3.61;95.75;96404.09;5075506;28;19953;-77
2022/12/07 11:54:28;;;;;;;;;;;;;;;3.63;95.20;96402.97;5092563;28;20290;-77
2022/12/07 11:56:56;;;;;;;;;;;;;;;3.59;91.42;96385.31;5093715;28;20316;-77
2022/12/07 11:59:25;;;;;;;;;;;;;;;3.55;94.37;96399.59;5093592;28;19952;-76
2022/12/07 12:02:02;;;;;;;;;;;;;;;3.57;95.07;96395.88;5092435;28;19957;-77
2022/12/07 12:04:34;;;;;;;;;;;;;;;3.52;93.46;96377.44;5078614;28;19975;-77
2022/12/07 12:07:01;;;;;;;;;;;;;;;3.49;95.08;96392.56;5095838;28;19951;-77
2022/12/07 12:09:30;;;;;;;;;;;;;;;3.53;95.70;96396.38;5096648;28;19973;-77
2022/12/07 12:12:07;;;;;;;;;;;;;;;3.55;96.09;96389.22;5096466;28;19950;-76
2022/12/07 12:14:46;;;;;;;;;;;;;;;3.58;95.78;96383.72;5097541;28;19947;-76
2022/12/07 12:17:12;;;;;;;;;;;;;;;3.62;95.75;96387.56;5097428;28;20393;-76
2022/12/07 12:19:41;;;;;;;;;;;;;;;3.60;94.75;96376.56;5079172;28;19943;-77
2022/12/07 12:22:10;;;;;;;;;;;;;;;3.60;96.26;96382.56;5095962;28;19965;-77
2022/12/07 12:24:39;;;;;;;;;;;;;;;3.62;94.45;96375.41;5097150;28;19951;-77
2022/12/07 12:27:09;;;;;;;;;;;;;;;3.64;96.29;96377.84;5097454;28;20409;-76
2022/12/07 12:29:40;;;;;;;;;;;;;;;3.66;95.41;96371.47;5097040;28;19956;-78
2022/12/07 12:32:15;;;;;;;;;;;;;;;3.69;96.90;96375.50;5097224;28;19954;-77
2022/12/07 12:34:57;;;;;;;;;;;;;;;3.72;96.23;96369.97;5095714;28;19946;-76
2022/12/07 12:37:34;;;;;;;;;;;;;;;3.76;96.52;96363.47;5087287;28;20457;-76
2022/12/07 12:40:15;;;;;;;;;;;;;;;3.77;95.25;96357.28;5082820;28;19947;-76
2022/12/07 12:42:45;;;;;;;;;;;;;;;3.79;93.04;96355.31;5078690;28;19986;-76
2022/12/07 12:45:30;;;;;;;;;;;;;;;3.76;95.28;96362.63;5096939;28;20319;-76
2022/12/07 12:47:59;;;;;;;;;;;;;;;3.79;94.59;96360.50;5081657;28;20334;-76
2022/12/07 12:50:31;;;;;;;;;;;;;;;3.75;91.66;96342.88;5095694;28;19961;-75
2022/12/07 12:53:00;;;;;;;;;;;;;;;3.70;95.26;96358.97;5096667;28;19969;-76
2022/12/07 12:55:41;;;;;;;;;;;;;;;3.72;96.53;96358.81;5096799;28;19951;-76
2022/12/07 12:58:19;;;;;;;;;;;;;;;3.76;94.99;96352.25;5096819;28;19958;-76
2022/12/07 13:00:46;;;;;;;;;;;;;;;3.75;95.43;96348.06;5096616;28;19943;-76
2022/12/07 13:03:34;;;;;;;;;;;;;;;3.74;95.46;96346.44;5096357;28;19958;-77
2022/12/07 13:06:19;;;;;;;;;;;;;;;3.72;95.07;96343.25;5095603;28;20425;-78
2022/12/07 13:08:45;;;;;;;;;;;;;;;3.68;94.00;96336.81;5095204;28;19945;-77
2022/12/07 13:11:17;;;;;;;;;;;;;;;3.65;94.73;96332.75;5096214;28;19954;-77